Tactical Directions — VHN5359 — position and weather

sailwx.info

Track history (hours):
 
Tides and Currents Weather Stations Pressure Air Temp Water Temp Dewpoint Dewpoint Depression Visibility Wind Speed Wind Dir Waves Ship Positions

Tactical Directions

Last reported at 2017-Oct-29 23:38 UTC. Time now 2017-Nov-21 02:40 UTC.
Position S 33°07' E 151°56'.
Warning: this ship's position is 22 days out of date.

Length 13 m.

Type: Sailing vessel. MMSI: 503580700.

Date/timePositionNaut miles runAvg speedWind from/ knotsBaromVisibWave heightAir tempDewpointWater temp
2017-Oct-29 23:38S 33°07' E 151°56'1 7.5
2017-Oct-29 23:30S 33°06' E 151°57'4 8.0
2017-Oct-29 23:00S 33°04' E 152°01'4 7.2
2017-Oct-29 22:30S 33°02' E 152°04'3 6.9
2017-Oct-29 22:00S 32°60' E 152°07'4 7.2
2017-Oct-29 21:30S 32°57' E 152°10'4 7.4
2017-Oct-29 21:00S 32°54' E 152°14'4 7.7
2017-Oct-29 20:31S 32°52' E 152°17'4 7.9
2017-Oct-29 20:00S 32°49' E 152°20'4 7.0
2017-Oct-29 19:30S 32°46' E 152°23'4 7.3
2017-Oct-29 19:00S 32°44' E 152°26'4 7.3
2017-Oct-29 18:30S 32°41' E 152°29'3 6.5
2017-Oct-29 18:00S 32°40' E 152°33'3 6.9
2017-Oct-29 17:30S 32°39' E 152°36'3 6.3
2017-Oct-29 17:00S 32°38' E 152°40'3 6.1
2017-Oct-29 16:30S 32°37' E 152°44'2 4.4
2017-Oct-29 16:00S 32°36' E 152°46'260 6.9
2017-Oct-28 02:20S 28°22' E 153°50'3 7.7
2017-Oct-28 01:59S 28°20' E 153°50'4 7.2
2017-Oct-28 01:23S 28°15' E 153°51'3 6.3
2017-Oct-28 00:50S 28°13' E 153°48'2 6.4
2017-Oct-28 00:30S 28°12' E 153°47'3 6.1
2017-Oct-28 00:00S 28°10' E 153°44'3 6.2
2017-Oct-27 23:30S 28°07' E 153°42'3 6.0
2017-Oct-27 23:00S 28°05' E 153°39'3 6.0
2017-Oct-27 22:30S 28°04' E 153°36'3 5.5
2017-Oct-27 22:01S 28°02' E 153°34'3 5.6
2017-Oct-27 21:30S 28°01' E 153°31'3 5.8
2017-Oct-27 21:00S 27°59' E 153°29'2 5.0
2017-Oct-27 20:30S 27°57' E 153°27'2 3.3
2017-Oct-27 20:00S 27°57' E 153°25'1 1.9
2017-Oct-27 19:29S 27°58' E 153°26'0 0.0
2017-Oct-27 06:38S 27°58' E 153°26'0 0.0
2017-Oct-26 21:23S 27°58' E 153°26'0 0.0
2017-Oct-26 20:59S 27°58' E 153°26'0 0.0
2017-Oct-26 20:29S 27°58' E 153°26'0 0.0
2017-Oct-26 19:59S 27°58' E 153°26'0 0.0
2017-Oct-26 19:29S 27°58' E 153°26'0 0.0
2017-Oct-26 18:59S 27°58' E 153°26'0 0.0
2017-Oct-26 18:29S 27°58' E 153°26'0 0.0
2017-Oct-26 17:59S 27°58' E 153°26'0 0.0
2017-Oct-26 17:26S 27°58' E 153°26'0 0.0
2017-Oct-26 16:59S 27°58' E 153°26'0 0.0
2017-Oct-26 16:29S 27°58' E 153°26'0 0.0
2017-Oct-26 15:59S 27°58' E 153°26'0 0.0
2017-Oct-26 15:29S 27°58' E 153°26'0 0.0
2017-Oct-26 14:59S 27°58' E 153°26'0 0.0
2017-Oct-26 14:29S 27°58' E 153°26'0 0.0
2017-Oct-26 13:59S 27°58' E 153°26'0 0.0
2017-Oct-26 13:29S 27°58' E 153°26'0 0.0
2017-Oct-26 12:59S 27°58' E 153°26'0 0.0
2017-Oct-26 12:29S 27°58' E 153°26'0 0.0
2017-Oct-26 11:59S 27°58' E 153°26'0 0.0
2017-Oct-26 11:29S 27°58' E 153°26'0 0.0
2017-Oct-26 10:59S 27°58' E 153°26'0 0.0
2017-Oct-26 10:29S 27°58' E 153°26'0 0.0
2017-Oct-26 09:56S 27°58' E 153°26'0 0.0
2017-Oct-26 09:29S 27°58' E 153°26'0 0.0
2017-Oct-26 08:59S 27°58' E 153°26'0 0.0
2017-Oct-26 08:29S 27°58' E 153°26'0 0.0
2017-Oct-26 07:59S 27°58' E 153°26'0 0.0
2017-Oct-26 07:29S 27°58' E 153°26'0 0.0
2017-Oct-26 06:59S 27°58' E 153°26'0 0.0
2017-Oct-26 06:29S 27°58' E 153°26'0 0.0
2017-Oct-26 05:58S 27°58' E 153°26'0 0.0
2017-Oct-26 05:28S 27°58' E 153°26'0 0.0
2017-Oct-26 04:58S 27°58' E 153°26'0 0.0
2017-Oct-26 04:28S 27°58' E 153°26'0 0.0
2017-Oct-26 03:58S 27°58' E 153°26'0 0.1
2017-Oct-26 03:28S 27°58' E 153°26'0 0.1
2017-Oct-26 03:00S 27°58' E 153°26'0 1.0
2017-Oct-26 02:30S 27°58' E 153°25'1 2.2
2017-Oct-26 02:00S 27°57' E 153°25'3 5.2
2017-Oct-26 01:30S 27°54' E 153°25'2 4.8
2017-Oct-26 01:00S 27°52' E 153°24'1 2.5
2017-Oct-26 00:30S 27°52' E 153°23'2 3.5
2017-Oct-26 00:00S 27°51' E 153°21'1 2.3
2017-Oct-25 23:30S 27°52' E 153°20'  
Track history (hours):
 
Tides and Currents Weather Stations Pressure Air Temp Water Temp Dewpoint Dewpoint Depression Visibility Wind Speed Wind Dir Waves Ship Positions

Tactical Directions

Last reported at 2017-Oct-29 23:38 UTC. Time now 2017-Nov-21 02:40 UTC.
Position S 33°07' E 151°56'.
Warning: this ship's position is 22 days out of date.

Length 13 m.

Type: Sailing vessel. MMSI: 503580700.

Date/timePositionNaut miles runAvg speedWind from/ knotsBaromVisibWave heightAir tempDewpointWater temp
2017-Oct-29 23:38S 33°07' E 151°56'1 7.5
2017-Oct-29 23:30S 33°06' E 151°57'4 8.0
2017-Oct-29 23:00S 33°04' E 152°01'4 7.2
2017-Oct-29 22:30S 33°02' E 152°04'3 6.9
2017-Oct-29 22:00S 32°60' E 152°07'4 7.2
2017-Oct-29 21:30S 32°57' E 152°10'4 7.4
2017-Oct-29 21:00S 32°54' E 152°14'4 7.7
2017-Oct-29 20:31S 32°52' E 152°17'4 7.9
2017-Oct-29 20:00S 32°49' E 152°20'4 7.0
2017-Oct-29 19:30S 32°46' E 152°23'4 7.3
2017-Oct-29 19:00S 32°44' E 152°26'4 7.3
2017-Oct-29 18:30S 32°41' E 152°29'3 6.5
2017-Oct-29 18:00S 32°40' E 152°33'3 6.9
2017-Oct-29 17:30S 32°39' E 152°36'3 6.3
2017-Oct-29 17:00S 32°38' E 152°40'3 6.1
2017-Oct-29 16:30S 32°37' E 152°44'2 4.4
2017-Oct-29 16:00S 32°36' E 152°46'260 6.9
2017-Oct-28 02:20S 28°22' E 153°50'3 7.7
2017-Oct-28 01:59S 28°20' E 153°50'4 7.2
2017-Oct-28 01:23S 28°15' E 153°51'3 6.3
2017-Oct-28 00:50S 28°13' E 153°48'2 6.4
2017-Oct-28 00:30S 28°12' E 153°47'3 6.1
2017-Oct-28 00:00S 28°10' E 153°44'3 6.2
2017-Oct-27 23:30S 28°07' E 153°42'3 6.0
2017-Oct-27 23:00S 28°05' E 153°39'3 6.0
2017-Oct-27 22:30S 28°04' E 153°36'3 5.5
2017-Oct-27 22:01S 28°02' E 153°34'3 5.6
2017-Oct-27 21:30S 28°01' E 153°31'3 5.8
2017-Oct-27 21:00S 27°59' E 153°29'2 5.0
2017-Oct-27 20:30S 27°57' E 153°27'2 3.3
2017-Oct-27 20:00S 27°57' E 153°25'1 1.9
2017-Oct-27 19:29S 27°58' E 153°26'0 0.0
2017-Oct-27 06:38S 27°58' E 153°26'0 0.0
2017-Oct-26 21:23S 27°58' E 153°26'0 0.0
2017-Oct-26 20:59S 27°58' E 153°26'0 0.0
2017-Oct-26 20:29S 27°58' E 153°26'0 0.0
2017-Oct-26 19:59S 27°58' E 153°26'0 0.0
2017-Oct-26 19:29S 27°58' E 153°26'0 0.0
2017-Oct-26 18:59S 27°58' E 153°26'0 0.0
2017-Oct-26 18:29S 27°58' E 153°26'0 0.0
2017-Oct-26 17:59S 27°58' E 153°26'0 0.0
2017-Oct-26 17:26S 27°58' E 153°26'0 0.0
2017-Oct-26 16:59S 27°58' E 153°26'0 0.0
2017-Oct-26 16:29S 27°58' E 153°26'0 0.0
2017-Oct-26 15:59S 27°58' E 153°26'0 0.0
2017-Oct-26 15:29S 27°58' E 153°26'0 0.0
2017-Oct-26 14:59S 27°58' E 153°26'0 0.0
2017-Oct-26 14:29S 27°58' E 153°26'0 0.0
2017-Oct-26 13:59S 27°58' E 153°26'0 0.0
2017-Oct-26 13:29S 27°58' E 153°26'0 0.0
2017-Oct-26 12:59S 27°58' E 153°26'0 0.0
2017-Oct-26 12:29S 27°58' E 153°26'0 0.0
2017-Oct-26 11:59S 27°58' E 153°26'0 0.0
2017-Oct-26 11:29S 27°58' E 153°26'0 0.0
2017-Oct-26 10:59S 27°58' E 153°26'0 0.0
2017-Oct-26 10:29S 27°58' E 153°26'0 0.0
2017-Oct-26 09:56S 27°58' E 153°26'0 0.0
2017-Oct-26 09:29S 27°58' E 153°26'0 0.0
2017-Oct-26 08:59S 27°58' E 153°26'0 0.0
2017-Oct-26 08:29S 27°58' E 153°26'0 0.0
2017-Oct-26 07:59S 27°58' E 153°26'0 0.0
2017-Oct-26 07:29S 27°58' E 153°26'0 0.0
2017-Oct-26 06:59S 27°58' E 153°26'0 0.0
2017-Oct-26 06:29S 27°58' E 153°26'0 0.0
2017-Oct-26 05:58S 27°58' E 153°26'0 0.0
2017-Oct-26 05:28S 27°58' E 153°26'0 0.0
2017-Oct-26 04:58S 27°58' E 153°26'0 0.0
2017-Oct-26 04:28S 27°58' E 153°26'0 0.0
2017-Oct-26 03:58S 27°58' E 153°26'0 0.1
2017-Oct-26 03:28S 27°58' E 153°26'0 0.1
2017-Oct-26 03:00S 27°58' E 153°26'0 1.0
2017-Oct-26 02:30S 27°58' E 153°25'1 2.2
2017-Oct-26 02:00S 27°57' E 153°25'3 5.2
2017-Oct-26 01:30S 27°54' E 153°25'2 4.8
2017-Oct-26 01:00S 27°52' E 153°24'1 2.5
2017-Oct-26 00:30S 27°52' E 153°23'2 3.5
2017-Oct-26 00:00S 27°51' E 153°21'1 2.3
2017-Oct-25 23:30S 27°52' E 153°20'  

Dump ship's entire track history